Alba, Michigan
Current Conditions -  °F | °C
As of 4:35 PM on Wednesday 17 Dec 2014 (Local Time) from KACB Reporting Station
Light Snow Light Snow  
Wind Chill: 25°   Ceiling: 2800
Heat Index: 30°   Visibility: 3mi
Dew Point: 26°   Wind: 5mph
Humidity: 86%   Direction: 320°NW
Pressure: 30.03"   Gusts: NA
Location:  44.97°N, 84.97°W
Report Text: KACB 172135Z AUTO 32004KT 3SM -SN SCT015 BKN028 OVC040 M01/M03 A3003 RMK AO2 T10131033
Loading
Personal Weather Stations






























Interactive Weather Map New forecast layout! Learn more

10-Day Weather Forecast

Advertisements
Track Severe Weather on mobile